Time;durP1;ratioP1;P1;durP2;ratioP2;P2;SDS_P1;SDS_P2;PMS_P1;PMS_P2;Temp;Humidity;BMP_temperature;BMP_pressure;BME280_temperature;BME280_humidity;BME280_pressure;Samples;Min_cycle;Max_cycle;Signal;HPM_P1;HPM_P2
2021/10/31 00:00:15;;;;;;;9.17;8.27;;;13.90;99.90;;;;;;5022088;28;20224;-70
2021/10/31 00:02:40;;;;;;;11.40;9.40;;;13.90;99.90;;;;;;5022935;28;21316;-71
2021/10/31 00:05:07;;;;;;;10.37;9.30;;;13.90;99.90;;;;;;5020532;28;20619;-71
2021/10/31 00:07:37;;;;;;;9.37;8.37;;;13.80;99.90;;;;;;5025106;28;20193;-71
2021/10/31 00:10:09;;;;;;;11.27;9.37;;;13.80;99.90;;;;;;5020524;28;20576;-71
2021/10/31 00:12:37;;;;;;;9.50;8.50;;;13.80;99.90;;;;;;5021430;28;20652;-70
2021/10/31 00:15:06;;;;;;;9.80;8.80;;;13.80;99.90;;;;;;5003192;28;20604;-71
2021/10/31 00:17:32;;;;;;;10.53;9.20;;;13.80;99.90;;;;;;5024271;28;20666;-70
2021/10/31 00:20:00;;;;;;;10.30;9.23;;;13.80;99.90;;;;;;5021427;28;21200;-71
2021/10/31 00:22:26;;;;;;;10.43;9.03;;;13.80;99.90;;;;;;5023524;28;20727;-71
2021/10/31 00:24:59;;;;;;;9.80;8.80;;;13.90;99.90;;;;;;5024641;28;20635;-71
2021/10/31 00:27:27;;;;;;;12.60;10.23;;;13.80;99.90;;;;;;5010469;28;20639;-70
2021/10/31 00:29:55;;;;;;;11.33;10.10;;;13.80;99.90;;;;;;5020924;28;20616;-69
2021/10/31 00:32:20;;;;;;;10.47;9.40;;;13.80;99.90;;;;;;5024312;28;20634;-70
2021/10/31 00:34:53;;;;;;;9.63;8.63;;;13.80;99.90;;;;;;5024577;28;20643;-70
2021/10/31 00:37:21;;;;;;;11.27;9.97;;;13.80;99.90;;;;;;5023085;28;20196;-70
2021/10/31 00:39:47;;;;;;;11.13;9.30;;;13.70;99.90;;;;;;5024569;28;21103;-70
2021/10/31 00:42:13;;;;;;;11.23;10.03;;;13.80;99.90;;;;;;5021398;28;20751;-70
2021/10/31 00:44:39;;;;;;;10.87;9.43;;;13.80;99.90;;;;;;5022576;28;20184;-70
2021/10/31 00:47:07;;;;;;;11.90;9.90;;;13.80;99.90;;;;;;5022525;28;20603;-71
2021/10/31 00:49:35;;;;;;;12.63;10.07;;;13.80;99.90;;;;;;5022576;28;20241;-71
2021/10/31 00:52:09;;;;;;;11.47;9.70;;;13.80;99.90;;;;;;5019775;28;21201;-70
2021/10/31 00:54:37;;;;;;;10.77;9.67;;;13.80;99.90;;;;;;5019739;28;20631;-70
2021/10/31 00:57:05;;;;;;;13.07;10.63;;;13.80;99.90;;;;;;5022035;28;20611;-71
2021/10/31 00:59:31;;;;;;;13.10;11.03;;;13.80;99.90;;;;;;5020682;28;20618;-71
2021/10/31 01:02:01;;;;;;;12.17;10.27;;;13.80;99.90;;;;;;5020413;28;21050;-70
2021/10/31 01:04:31;;;;;;;12.00;10.80;;;13.80;99.90;;;;;;5009045;28;20304;-70
2021/10/31 01:07:02;;;;;;;11.57;10.37;;;13.80;99.90;;;;;;5021513;28;20788;-70
2021/10/31 01:10:08;;;;;;;12.43;11.13;;;13.80;99.90;;;;;;5022850;28;20960;-70
2021/10/31 01:12:58;;;;;;;12.30;10.60;;;13.80;99.90;;;;;;5018553;28;21236;-70
2021/10/31 01:15:30;;;;;;;11.40;9.90;;;13.70;99.90;;;;;;5020609;28;20615;-70
2021/10/31 01:18:04;;;;;;;13.17;11.37;;;13.80;99.90;;;;;;5021689;28;20599;-70
2021/10/31 01:20:38;;;;;;;13.00;11.70;;;13.70;99.90;;;;;;5021074;28;20733;-73
2021/10/31 01:23:19;;;;;;;13.23;11.40;;;13.70;99.90;;;;;;5014589;28;20643;-72
2021/10/31 01:26:13;;;;;;;12.10;10.20;;;13.80;99.90;;;;;;5022578;28;20646;-72
2021/10/31 01:29:05;;;;;;;12.87;11.10;;;13.80;99.90;;;;;;4966902;28;20652;-72
2021/10/31 01:32:03;;;;;;;12.57;11.13;;;13.80;99.90;;;;;;5020986;28;20636;-72
2021/10/31 01:34:46;;;;;;;12.40;11.00;;;13.80;99.90;;;;;;5019646;28;20748;-71
2021/10/31 01:37:32;;;;;;;12.73;10.17;;;13.70;99.90;;;;;;5021472;28;20603;-71
2021/10/31 01:40:13;;;;;;;13.10;11.03;;;13.70;99.90;;;;;;5022151;28;21200;-71
2021/10/31 01:43:05;;;;;;;13.60;10.60;;;13.70;99.90;;;;;;5019705;28;20632;-71
2021/10/31 01:45:45;;;;;;;12.50;11.00;;;13.80;99.90;;;;;;5022285;28;20599;-71
2021/10/31 01:48:41;;;;;;;13.53;12.23;;;13.80;99.90;;;;;;5022432;28;20599;-70
2021/10/31 01:51:39;;;;;;;14.43;12.10;;;14.00;99.90;;;;;;5018082;28;20638;-71
2021/10/31 01:54:12;;;;;;;12.23;10.57;;;13.80;99.90;;;;;;5025104;28;20709;-72
2021/10/31 01:56:41;;;;;;;13.83;11.30;;;13.80;99.90;;;;;;5024256;28;20949;-71
2021/10/31 01:59:19;;;;;;;13.60;11.00;;;13.80;99.90;;;;;;5025072;28;20736;-71
2021/10/31 02:01:52;;;;;;;14.13;11.63;;;13.70;99.90;;;;;;5023130;28;20646;-70
2021/10/31 02:04:25;;;;;;;13.53;11.90;;;13.80;99.90;;;;;;5020880;28;20630;-70
2021/10/31 02:06:54;;;;;;;12.67;11.20;;;13.70;99.90;;;;;;5025528;28;20700;-70
2021/10/31 02:09:23;;;;;;;11.40;10.20;;;13.80;99.90;;;;;;5026859;28;20709;-70
2021/10/31 02:11:52;;;;;;;14.07;11.97;;;13.70;99.90;;;;;;5023505;28;20647;-70
2021/10/31 02:14:19;;;;;;;13.50;11.40;;;13.70;99.90;;;;;;5023664;28;20651;-70
2021/10/31 02:16:47;;;;;;;12.80;11.17;;;13.60;99.90;;;;;;5026661;28;20615;-70
2021/10/31 02:19:29;;;;;;;12.50;11.20;;;13.60;99.90;;;;;;5026149;28;20600;-70
2021/10/31 02:22:03;;;;;;;14.10;12.07;;;13.60;99.90;;;;;;5025862;28;20627;-70
2021/10/31 02:24:29;;;;;;;14.10;11.80;;;13.60;99.90;;;;;;5024890;28;20611;-72
2021/10/31 02:27:00;;;;;;;13.63;12.10;;;13.60;99.90;;;;;;5006417;28;20691;-72
2021/10/31 02:29:25;;;;;;;14.77;12.17;;;13.50;99.90;;;;;;5022815;28;20721;-71
2021/10/31 02:31:57;;;;;;;12.63;11.33;;;13.50;99.90;;;;;;5025487;28;21108;-71
2021/10/31 02:34:32;;;;;;;13.93;11.40;;;13.50;99.90;;;;;;5027201;28;20213;-71
2021/10/31 02:36:58;;;;;;;13.80;11.27;;;13.50;99.90;;;;;;5024290;28;20611;-72
2021/10/31 02:39:28;;;;;;;14.23;12.63;;;13.50;99.90;;;;;;5022897;28;20672;-72
2021/10/31 02:41:59;;;;;;;13.60;11.63;;;13.50;99.90;;;;;;5024276;28;20705;-71
2021/10/31 02:44:24;;;;;;;15.53;12.37;;;13.50;99.90;;;;;;5025982;28;21197;-71
2021/10/31 02:46:53;;;;;;;15.50;12.13;;;13.50;99.90;;;;;;5025382;28;20618;-70
2021/10/31 02:49:19;;;;;;;14.37;12.67;;;13.50;99.90;;;;;;5026257;28;20514;-71
2021/10/31 02:51:59;;;;;;;15.60;13.93;;;13.50;99.90;;;;;;5022497;28;20673;-71
2021/10/31 02:54:51;;;;;;;16.33;13.23;;;13.50;99.90;;;;;;5026406;28;20654;-71
2021/10/31 02:57:47;;;;;;;16.03;12.87;;;13.50;99.90;;;;;;5023845;28;20660;-71
2021/10/31 03:00:14;;;;;;;17.53;12.90;;;13.50;99.90;;;;;;5021505;28;20762;-71
2021/10/31 03:02:41;;;;;;;14.10;12.50;;;13.40;99.90;;;;;;5025780;28;20856;-71
2021/10/31 03:05:14;;;;;;;15.10;13.43;;;13.50;99.90;;;;;;5023936;28;20607;-71
2021/10/31 03:07:39;;;;;;;17.07;14.07;;;13.50;99.90;;;;;;5025543;28;20948;-74
2021/10/31 03:10:15;;;;;;;16.53;14.33;;;13.50;99.90;;;;;;5024872;28;20596;-71
2021/10/31 03:12:41;;;;;;;17.03;13.50;;;13.50;99.90;;;;;;5022682;28;20695;-71
2021/10/31 03:15:14;;;;;;;15.73;14.00;;;13.50;99.90;;;;;;5024049;28;20727;-70
2021/10/31 03:17:44;;;;;;;16.33;13.43;;;13.50;99.90;;;;;;5024496;28;20230;-69
2021/10/31 03:20:12;;;;;;;14.57;13.07;;;13.50;99.90;;;;;;5023699;28;20739;-70
2021/10/31 03:22:38;;;;;;;15.00;13.47;;;13.50;99.90;;;;;;5023108;28;20631;-70
2021/10/31 03:25:05;;;;;;;16.47;14.03;;;13.50;99.90;;;;;;5024027;28;20689;-70
2021/10/31 03:27:30;;;;;;;16.90;14.50;;;13.50;99.90;;;;;;5004020;28;20625;-70
2021/10/31 03:29:56;;;;;;;16.50;13.70;;;13.50;99.90;;;;;;5022283;28;20648;-70
2021/10/31 03:32:22;;;;;;;16.03;14.10;;;13.50;99.90;;;;;;5023921;28;20326;-70
2021/10/31 03:34:51;;;;;;;16.30;14.33;;;13.50;99.90;;;;;;5024363;28;20220;-72
2021/10/31 03:37:19;;;;;;;18.97;14.77;;;13.50;99.90;;;;;;5021260;28;20276;-70
2021/10/31 03:39:45;;;;;;;17.20;13.70;;;13.50;99.90;;;;;;5025368;28;20607;-71
2021/10/31 03:42:10;;;;;;;18.53;13.60;;;13.50;99.90;;;;;;5021527;28;21201;-70
2021/10/31 03:44:47;;;;;;;16.70;14.27;;;13.70;99.90;;;;;;5004946;28;20257;-70
2021/10/31 03:47:15;;;;;;;17.93;14.73;;;13.50;99.90;;;;;;5021777;28;20208;-70
2021/10/31 03:49:41;;;;;;;16.67;14.60;;;13.50;99.90;;;;;;5023958;28;20600;-70
2021/10/31 03:52:07;;;;;;;17.50;15.10;;;13.50;99.90;;;;;;5019447;28;20649;-70
2021/10/31 03:54:34;;;;;;;19.20;14.00;;;13.50;99.90;;;;;;5006325;28;20240;-70
2021/10/31 03:57:02;;;;;;;17.83;15.73;;;13.50;99.90;;;;;;5022787;28;20216;-70
2021/10/31 03:59:32;;;;;;;17.80;14.87;;;13.50;99.90;;;;;;5022508;28;21158;-70
2021/10/31 04:02:00;;;;;;;18.53;15.23;;;13.50;99.90;;;;;;5020390;28;20674;-70
2021/10/31 04:04:31;;;;;;;17.60;15.30;;;13.50;99.90;;;;;;5020789;28;20749;-70
2021/10/31 04:09:51;;;;;;;16.97;14.53;;;13.50;99.90;;;;;;5023684;28;20607;-70
2021/10/31 04:12:17;;;;;;;19.97;15.60;;;13.60;99.90;;;;;;5024113;28;20705;-70
2021/10/31 04:14:42;;;;;;;20.50;15.63;;;13.60;99.90;;;;;;5021400;28;20659;-70
2021/10/31 04:17:13;;;;;;;24.97;17.30;;;13.60;99.90;;;;;;5024561;28;20268;-70
2021/10/31 04:19:39;;;;;;;19.43;15.90;;;13.70;99.90;;;;;;5026123;28;20192;-70
2021/10/31 04:22:04;;;;;;;19.43;15.97;;;13.70;99.90;;;;;;5022889;28;20639;-70
2021/10/31 04:24:33;;;;;;;20.57;16.27;;;13.60;99.90;;;;;;5024886;28;20192;-70
2021/10/31 04:27:03;;;;;;;20.37;15.90;;;13.70;99.90;;;;;;5025083;28;20546;-71
2021/10/31 04:29:29;;;;;;;17.93;15.20;;;13.60;99.90;;;;;;5022569;28;20674;-70
2021/10/31 04:31:57;;;;;;;19.83;16.20;;;13.60;99.90;;;;;;5024124;28;20679;-71
2021/10/31 04:34:23;;;;;;;17.80;15.10;;;13.70;99.90;;;;;;5022281;28;20322;-70
2021/10/31 04:36:57;;;;;;;20.70;16.70;;;13.70;99.90;;;;;;5023521;28;20616;-71
2021/10/31 04:39:22;;;;;;;21.50;17.80;;;13.60;99.90;;;;;;5023825;28;20709;-70
2021/10/31 04:41:52;;;;;;;20.33;17.00;;;13.60;99.90;;;;;;5021164;28;21059;-70
2021/10/31 04:44:25;;;;;;;22.37;16.40;;;13.60;99.90;;;;;;5022268;28;20656;-70
2021/10/31 04:47:04;;;;;;;18.70;16.20;;;13.60;99.90;;;;;;5022649;28;20992;-70
2021/10/31 04:49:47;;;;;;;19.10;15.37;;;13.60;99.90;;;;;;5018341;28;20681;-70
2021/10/31 04:52:16;;;;;;;19.97;17.27;;;13.60;99.90;;;;;;5017763;28;20644;-70
2021/10/31 04:54:44;;;;;;;19.40;16.70;;;13.60;99.90;;;;;;5004619;28;20634;-70
2021/10/31 04:57:10;;;;;;;20.07;16.77;;;13.60;99.90;;;;;;5021210;28;20615;-71
2021/10/31 04:59:37;;;;;;;19.70;16.83;;;13.60;99.90;;;;;;5018965;28;20664;-70
2021/10/31 05:02:03;;;;;;;20.90;16.97;;;13.60;99.90;;;;;;5019484;28;20254;-70
2021/10/31 05:04:29;;;;;;;23.93;17.80;;;13.70;99.90;;;;;;5023196;28;20647;-70
2021/10/31 05:06:56;;;;;;;21.97;17.40;;;13.60;99.90;;;;;;5004062;28;20200;-70
2021/10/31 05:09:22;;;;;;;22.10;18.03;;;13.60;99.90;;;;;;5022552;28;20287;-70
2021/10/31 05:11:50;;;;;;;24.67;18.60;;;13.50;99.90;;;;;;5022236;28;20639;-70
2021/10/31 05:14:16;;;;;;;23.77;18.40;;;13.50;99.90;;;;;;5022994;28;20717;-70
2021/10/31 05:16:41;;;;;;;20.77;17.63;;;13.50;99.90;;;;;;5022668;28;20722;-70
2021/10/31 05:19:12;;;;;;;21.13;17.43;;;13.60;99.90;;;;;;5025538;28;20277;-70
2021/10/31 05:21:40;;;;;;;21.63;17.10;;;13.50;99.90;;;;;;5023819;28;20243;-71
2021/10/31 05:24:08;;;;;;;22.10;17.57;;;13.60;99.90;;;;;;5022853;28;20651;-70
2021/10/31 05:26:37;;;;;;;19.43;16.40;;;13.60;99.90;;;;;;5020620;28;21210;-71
2021/10/31 05:29:05;;;;;;;19.90;17.07;;;13.60;99.90;;;;;;5024323;28;20642;-70
2021/10/31 05:31:33;;;;;;;19.50;16.40;;;13.60;99.90;;;;;;5022599;28;20646;-71
2021/10/31 05:34:02;;;;;;;21.13;15.97;;;13.60;99.90;;;;;;5025520;28;21313;-70
2021/10/31 05:36:37;;;;;;;22.40;16.90;;;13.60;99.90;;;;;;5026988;28;21122;-70
2021/10/31 05:39:08;;;;;;;20.20;15.90;;;13.60;99.90;;;;;;5027071;28;20615;-71
2021/10/31 05:41:36;;;;;;;21.73;16.90;;;13.50;99.90;;;;;;5025321;28;20650;-70
2021/10/31 05:44:02;;;;;;;22.03;18.07;;;13.60;99.90;;;;;;5023671;28;20635;-72
2021/10/31 05:46:28;;;;;;;20.50;15.30;;;13.60;99.90;;;;;;5025212;28;20620;-72
2021/10/31 05:48:57;;;;;;;21.60;17.33;;;13.50;99.90;;;;;;5024288;28;20619;-72
2021/10/31 05:51:23;;;;;;;20.73;15.63;;;13.50;99.90;;;;;;5022656;28;21063;-69
2021/10/31 05:53:51;;;;;;;20.73;17.27;;;13.40;99.90;;;;;;5022608;28;20663;-69
2021/10/31 05:56:18;;;;;;;19.57;15.83;;;13.40;99.90;;;;;;5022299;28;20191;-70
2021/10/31 05:58:44;;;;;;;19.00;15.40;;;13.40;99.90;;;;;;5005375;28;20657;-70
2021/10/31 06:01:17;;;;;;;21.77;16.53;;;13.40;99.90;;;;;;5023167;28;20627;-70
2021/10/31 06:03:43;;;;;;;18.00;13.53;;;13.40;99.90;;;;;;5023365;28;20244;-70
2021/10/31 06:06:08;;;;;;;19.50;15.23;;;13.40;99.90;;;;;;5022646;28;21003;-70
2021/10/31 06:08:37;;;;;;;18.73;14.13;;;13.40;99.90;;;;;;5013315;28;20765;-70
2021/10/31 06:11:02;;;;;;;17.60;14.97;;;13.30;99.90;;;;;;5021920;28;20213;-69
2021/10/31 06:13:30;;;;;;;17.70;13.90;;;13.30;99.90;;;;;;5008034;28;20674;-70
2021/10/31 06:15:56;;;;;;;16.20;13.67;;;13.30;99.90;;;;;;5020763;28;20648;-70
2021/10/31 06:18:26;;;;;;;17.63;13.67;;;13.30;99.90;;;;;;5021092;28;20648;-71
2021/10/31 06:20:54;;;;;;;15.73;13.53;;;13.30;99.90;;;;;;5022201;28;20267;-71
2021/10/31 06:23:20;;;;;;;16.67;12.80;;;13.20;99.90;;;;;;5023497;28;20640;-70
2021/10/31 06:25:45;;;;;;;18.80;14.40;;;13.30;99.90;;;;;;5024509;28;20611;-71
2021/10/31 06:28:16;;;;;;;16.50;13.43;;;13.30;99.90;;;;;;5004084;28;20664;-70
2021/10/31 06:30:47;;;;;;;16.30;14.03;;;13.30;99.90;;;;;;5004931;28;20331;-69
2021/10/31 06:33:13;;;;;;;16.27;13.70;;;13.30;99.90;;;;;;5023114;28;20816;-70
2021/10/31 06:35:42;;;;;;;18.27;14.17;;;13.30;99.90;;;;;;5023259;28;21481;-69
2021/10/31 06:38:10;;;;;;;16.37;14.40;;;13.40;99.90;;;;;;5007604;28;20189;-71
2021/10/31 06:40:38;;;;;;;16.37;13.50;;;13.40;99.90;;;;;;5027168;28;20698;-70
2021/10/31 06:43:06;;;;;;;15.43;12.93;;;13.30;99.90;;;;;;5003704;28;20665;-70
2021/10/31 06:45:31;;;;;;;16.90;13.77;;;13.30;99.90;;;;;;5025928;28;20752;-71
2021/10/31 06:47:57;;;;;;;15.93;12.47;;;13.30;99.90;;;;;;5010381;28;20715;-70
2021/10/31 06:50:25;;;;;;;20.53;15.60;;;13.40;99.90;;;;;;5025554;28;20213;-71
2021/10/31 06:52:53;;;;;;;16.13;13.17;;;13.40;99.90;;;;;;5024628;28;20262;-73
2021/10/31 06:55:21;;;;;;;17.20;13.97;;;13.40;99.90;;;;;;5024266;28;20611;-70
2021/10/31 06:57:55;;;;;;;14.47;12.97;;;13.40;99.90;;;;;;5025029;28;20669;-71
2021/10/31 07:00:23;;;;;;;16.80;13.60;;;13.40;99.90;;;;;;5024008;28;21269;-71
2021/10/31 07:03:01;;;;;;;16.03;13.73;;;13.40;99.90;;;;;;5023360;28;21317;-72
2021/10/31 07:05:27;;;;;;;19.10;14.63;;;13.40;99.90;;;;;;5023595;28;20626;-70
2021/10/31 07:08:00;;;;;;;18.23;13.37;;;13.40;99.90;;;;;;5024222;28;20611;-70
2021/10/31 07:10:26;;;;;;;18.07;13.83;;;13.40;99.90;;;;;;5021488;28;20584;-71
2021/10/31 07:12:53;;;;;;;15.40;12.80;;;13.30;99.90;;;;;;5026864;28;20781;-69
2021/10/31 07:15:19;;;;;;;15.00;12.27;;;13.30;99.90;;;;;;5025233;28;20726;-71
2021/10/31 07:17:45;;;;;;;14.00;11.90;;;13.30;99.90;;;;;;5009768;28;20658;-71
2021/10/31 07:20:13;;;;;;;17.90;14.93;;;13.40;99.90;;;;;;4996145;28;20756;-72
2021/10/31 07:22:40;;;;;;;17.03;14.03;;;13.40;99.90;;;;;;5025810;28;20197;-71
2021/10/31 07:25:06;;;;;;;19.93;15.00;;;13.40;99.90;;;;;;5023751;28;20615;-65
2021/10/31 07:27:32;;;;;;;16.20;13.40;;;13.40;99.90;;;;;;5021902;28;20947;-72
2021/10/31 07:29:58;;;;;;;17.27;13.20;;;13.40;99.90;;;;;;5015234;28;20983;-70
2021/10/31 07:32:23;;;;;;;14.27;12.30;;;13.40;99.90;;;;;;5008133;28;20225;-69
2021/10/31 07:34:49;;;;;;;18.83;13.97;;;13.50;99.90;;;;;;5026720;28;20264;-71
2021/10/31 07:37:15;;;;;;;15.87;13.77;;;13.50;99.90;;;;;;5009174;28;20312;-71
2021/10/31 07:39:42;;;;;;;15.17;12.30;;;13.50;99.90;;;;;;5022917;28;20590;-71
2021/10/31 07:42:08;;;;;;;16.20;14.20;;;13.50;99.90;;;;;;5022839;28;20656;-70
2021/10/31 07:44:34;;;;;;;17.60;13.17;;;13.40;99.90;;;;;;5022534;28;20702;-70
2021/10/31 07:46:59;;;;;;;16.33;13.23;;;13.50;99.90;;;;;;5021061;28;20257;-70
2021/10/31 07:49:25;;;;;;;14.07;12.53;;;13.40;99.90;;;;;;5006264;28;20955;-70
2021/10/31 07:51:51;;;;;;;16.17;12.30;;;13.40;99.90;;;;;;5004602;28;20490;-69
2021/10/31 07:54:21;;;;;;;16.80;13.80;;;13.40;99.90;;;;;;5014853;28;20512;-69
2021/10/31 07:56:48;;;;;;;16.10;13.10;;;13.30;99.90;;;;;;5019893;28;20280;-70
2021/10/31 07:59:14;;;;;;;15.10;12.90;;;13.40;99.90;;;;;;4997528;28;22100;-69
2021/10/31 08:01:40;;;;;;;16.30;13.33;;;13.40;99.90;;;;;;5018735;28;20654;-70
2021/10/31 08:04:05;;;;;;;17.50;13.80;;;13.40;99.90;;;;;;5001450;28;20303;-71
2021/10/31 08:06:31;;;;;;;16.27;12.50;;;13.40;99.90;;;;;;5019189;28;20227;-70
2021/10/31 08:08:57;;;;;;;16.07;12.30;;;13.40;99.90;;;;;;5018214;28;20260;-69
2021/10/31 08:11:23;;;;;;;17.60;13.10;;;13.50;99.90;;;;;;5019089;28;20772;-70
2021/10/31 08:13:48;;;;;;;14.67;12.63;;;13.50;99.90;;;;;;5004480;28;20303;-70
2021/10/31 08:16:15;;;;;;;16.83;13.07;;;13.50;99.90;;;;;;5013463;28;20193;-71
2021/10/31 08:18:40;;;;;;;16.07;13.47;;;13.60;99.90;;;;;;5021743;28;20324;-69
2021/10/31 08:21:06;;;;;;;13.57;12.07;;;13.50;99.90;;;;;;5022064;28;20822;-70
2021/10/31 08:23:32;;;;;;;18.30;12.60;;;13.60;99.90;;;;;;5022276;28;20213;-70
2021/10/31 08:26:00;;;;;;;15.30;12.77;;;13.60;99.90;;;;;;5022992;28;20185;-70
2021/10/31 08:28:25;;;;;;;12.83;11.33;;;13.60;99.90;;;;;;5022583;28;20272;-69
2021/10/31 08:30:57;;;;;;;15.00;12.03;;;13.50;99.90;;;;;;5015147;28;20710;-70
2021/10/31 08:33:28;;;;;;;13.13;11.57;;;13.60;99.90;;;;;;5023050;28;20247;-70
2021/10/31 08:35:54;;;;;;;15.30;13.37;;;13.60;99.90;;;;;;5014097;28;20607;-70
2021/10/31 08:38:20;;;;;;;15.17;12.20;;;13.60;99.90;;;;;;5023972;28;20612;-70
2021/10/31 08:40:51;;;;;;;15.73;11.40;;;13.60;99.90;;;;;;5023449;28;21270;-70
2021/10/31 08:43:18;;;;;;;14.00;11.60;;;13.60;99.90;;;;;;5026190;28;20216;-69
2021/10/31 08:45:45;;;;;;;16.73;11.80;;;13.60;99.90;;;;;;5025902;28;20711;-69
2021/10/31 08:48:12;;;;;;;13.87;11.10;;;13.60;99.90;;;;;;5026185;28;20773;-70
2021/10/31 08:50:38;;;;;;;16.33;11.10;;;13.60;99.90;;;;;;5024848;28;20665;-69
2021/10/31 08:53:07;;;;;;;14.37;11.47;;;13.60;99.90;;;;;;5024754;28;20647;-70
2021/10/31 08:55:35;;;;;;;14.90;11.50;;;13.60;99.90;;;;;;5021664;28;20195;-70
2021/10/31 08:58:04;;;;;;;15.27;11.20;;;13.60;99.90;;;;;;5005930;28;20978;-70
2021/10/31 09:00:30;;;;;;;13.67;11.23;;;13.80;99.90;;;;;;5026147;28;20802;-70
2021/10/31 09:02:55;;;;;;;13.80;10.87;;;13.80;99.90;;;;;;5025943;28;20687;-70
2021/10/31 09:05:21;;;;;;;13.57;10.87;;;13.70;99.90;;;;;;5023248;28;20205;-70
2021/10/31 09:07:47;;;;;;;13.03;10.83;;;13.80;99.90;;;;;;5024251;28;20667;-71
2021/10/31 09:10:12;;;;;;;14.37;11.53;;;13.90;99.90;;;;;;5021399;28;20212;-71
2021/10/31 09:12:38;;;;;;;17.40;15.03;;;13.80;99.90;;;;;;5025828;28;20331;-70
2021/10/31 09:15:04;;;;;;;14.53;11.43;;;13.80;99.90;;;;;;5024166;28;20219;-70
2021/10/31 09:17:30;;;;;;;13.40;9.93;;;13.90;99.90;;;;;;5023647;28;20291;-70
2021/10/31 09:19:55;;;;;;;14.00;11.27;;;14.00;99.90;;;;;;5005150;28;20616;-70
2021/10/31 09:22:21;;;;;;;12.90;10.80;;;14.00;99.90;;;;;;5024495;28;20641;-70
2021/10/31 09:24:48;;;;;;;14.43;11.20;;;14.00;99.90;;;;;;5023961;28;20203;-70
2021/10/31 09:27:13;;;;;;;14.07;11.43;;;14.00;99.90;;;;;;5024383;28;20189;-69
2021/10/31 09:29:39;;;;;;;18.40;10.50;;;14.00;99.90;;;;;;5024522;28;20715;-70
2021/10/31 09:32:05;;;;;;;13.67;11.17;;;14.10;99.90;;;;;;5021320;28;20229;-70
2021/10/31 09:34:30;;;;;;;14.97;10.80;;;14.10;99.90;;;;;;5020395;28;20208;-70
2021/10/31 09:36:57;;;;;;;14.97;10.60;;;14.30;99.90;;;;;;5020244;28;21175;-70
2021/10/31 09:39:23;;;;;;;14.87;11.17;;;14.10;99.90;;;;;;5019828;28;20195;-70
2021/10/31 09:41:50;;;;;;;14.73;10.87;;;14.20;99.90;;;;;;5017746;28;20782;-71
2021/10/31 09:46:43;;;;;;;14.20;11.50;;;14.30;99.90;;;;;;5021831;28;21251;-70
2021/10/31 09:49:10;;;;;;;13.20;10.53;;;14.30;99.90;;;;;;5026827;28;20670;-70
2021/10/31 09:51:37;;;;;;;17.13;12.17;;;14.30;99.90;;;;;;5024684;28;20735;-70
2021/10/31 09:54:03;;;;;;;15.73;11.50;;;14.30;99.90;;;;;;5023885;28;21002;-70
2021/10/31 09:56:29;;;;;;;14.87;11.53;;;14.30;99.90;;;;;;5021993;28;20620;-70
2021/10/31 09:58:59;;;;;;;13.47;11.70;;;14.40;99.90;;;;;;5022255;28;20196;-70
2021/10/31 10:04:31;;;;;;;13.27;10.13;;;14.40;99.90;;;;;;5023106;28;20734;-70
2021/10/31 10:07:00;;;;;;;11.90;9.97;;;14.70;99.90;;;;;;5022939;28;20637;-70
2021/10/31 10:09:27;;;;;;;13.93;10.60;;;14.80;99.90;;;;;;5024426;28;20643;-69
2021/10/31 10:11:53;;;;;;;15.80;11.27;;;14.80;99.90;;;;;;5012889;28;20646;-70
2021/10/31 10:14:26;;;;;;;58.40;55.20;;;14.90;99.90;;;;;;5021627;28;21268;-70
2021/10/31 10:17:03;;;;;;;13.80;11.27;;;14.90;99.90;;;;;;5022195;28;20611;-70
2021/10/31 10:19:31;;;;;;;216.70;200.23;;;14.80;99.90;;;;;;5026200;28;20572;-70
2021/10/31 10:22:07;;;;;;;217.27;200.27;;;14.90;99.90;;;;;;5015812;28;20728;-71
2021/10/31 10:24:36;;;;;;;231.70;208.97;;;14.80;99.90;;;;;;4999854;28;20619;-71
2021/10/31 10:27:05;;;;;;;351.33;232.27;;;15.10;99.90;;;;;;5022179;28;20687;-70
2021/10/31 10:29:35;;;;;;;539.63;493.30;;;14.90;99.90;;;;;;5013181;28;24883;-70
2021/10/31 10:32:04;;;;;;;627.03;579.80;;;15.10;99.90;;;;;;5012451;28;24420;-69
2021/10/31 10:34:47;;;;;;;739.10;689.83;;;15.20;99.90;;;;;;5009921;28;24479;-72
2021/10/31 10:37:36;;;;;;;793.80;743.33;;;15.30;99.90;;;;;;5018848;28;24757;-71
2021/10/31 10:40:06;;;;;;;849.15;798.00;;;15.70;99.90;;;;;;4995694;28;24427;-71
2021/10/31 10:42:37;;;;;;;843.10;792.40;;;15.70;99.90;;;;;;5018566;28;24500;-70
2021/10/31 10:45:12;;;;;;;859.38;808.05;;;15.80;99.90;;;;;;5016373;28;24574;-70
2021/10/31 10:47:56;;;;;;;842.60;792.30;;;15.90;99.90;;;;;;5016571;28;24432;-70
2021/10/31 10:50:27;;;;;;;879.03;827.23;;;16.00;99.90;;;;;;5015367;28;24458;-71
2021/10/31 10:52:55;;;;;;;883.63;832.22;;;16.20;99.90;;;;;;5016932;28;24974;-72
2021/10/31 10:55:39;;;;;;;884.20;833.08;;;16.20;99.90;;;;;;5015922;28;24487;-68
2021/10/31 10:58:19;;;;;;;847.92;797.85;;;16.20;99.90;;;;;;5016690;28;24413;-70
2021/10/31 11:00:51;;;;;;;834.13;784.38;;;16.50;99.90;;;;;;5012079;28;24481;-70
2021/10/31 11:03:20;;;;;;;860.88;810.22;;;16.50;99.90;;;;;;5018560;28;24524;-72
2021/10/31 11:05:51;;;;;;;892.33;841.08;;;16.60;99.90;;;;;;5011608;28;24523;-70
2021/10/31 11:08:16;;;;;;;930.00;876.47;;;16.80;99.90;;;;;;5012731;28;24424;-70
2021/10/31 11:10:58;;;;;;;892.30;840.50;;;16.70;99.90;;;;;;4986989;28;24730;-71
2021/10/31 11:13:26;;;;;;;880.85;829.72;;;16.90;99.90;;;;;;5012185;28;25028;-72
2021/10/31 11:15:55;;;;;;;844.03;794.22;;;16.80;99.90;;;;;;5015557;28;24519;-71
2021/10/31 11:18:21;;;;;;;830.58;780.88;;;16.80;99.90;;;;;;5016221;28;24863;-68
2021/10/31 11:20:47;;;;;;;837.85;787.60;;;16.90;99.90;;;;;;5010796;28;25199;-68
2021/10/31 11:23:17;;;;;;;901.15;849.78;;;17.10;99.90;;;;;;5006256;28;24432;-69
2021/10/31 11:25:46;;;;;;;898.67;847.08;;;17.30;99.90;;;;;;5013084;28;24489;-68
2021/10/31 11:28:15;;;;;;;882.75;831.85;;;17.40;99.90;;;;;;5016519;28;24442;-69
2021/10/31 11:30:42;;;;;;;932.27;880.03;;;17.60;99.90;;;;;;5010823;28;24550;-70
2021/10/31 11:33:09;;;;;;;951.25;898.65;;;17.90;99.90;;;;;;5012496;28;20765;-70
2021/10/31 11:35:35;;;;;;;968.85;914.75;;;18.70;99.90;;;;;;5015244;28;24607;-68
2021/10/31 11:38:11;;;;;;;965.97;911.30;;;19.00;99.90;;;;;;5016944;28;24513;-72
2021/10/31 11:40:42;;;;;;;986.75;931.30;;;19.90;99.90;;;;;;5006476;28;25643;-68
2021/10/31 11:43:14;;;;;;;1014.75;957.05;;;20.50;99.90;;;;;;5008300;28;24538;-68
2021/10/31 11:45:44;;;;;;;1051.72;994.33;;;21.10;99.90;;;;;;5015889;28;24916;-69
2021/10/31 11:48:34;;;;;;;1062.63;999.90;;;22.30;99.90;;;;;;5016707;28;24778;-69
2021/10/31 11:50:59;;;;;;;1083.97;999.90;;;24.00;99.90;;;;;;4990546;28;24805;-68
2021/10/31 11:53:27;;;;;;;1086.83;999.90;;;25.30;99.90;;;;;;5012726;28;25140;-68
2021/10/31 11:55:55;;;;;;;1148.50;999.90;;;25.80;99.90;;;;;;5014365;28;24424;-71
2021/10/31 11:58:28;;;;;;;1199.60;999.90;;;27.10;99.90;;;;;;5009318;28;20769;-66
2021/10/31 12:00:57;;;;;;;1197.57;999.90;;;28.70;99.90;;;;;;5005615;28;24474;-70
2021/10/31 12:03:32;;;;;;;1185.65;999.90;;;29.60;99.90;;;;;;5012400;28;24569;-68
2021/10/31 12:06:27;;;;;;;1223.00;999.90;;;30.20;99.90;;;;;;5014219;28;24512;-69
2021/10/31 12:08:59;;;;;;;1242.82;999.90;;;30.50;99.90;;;;;;5007212;28;25106;-68
2021/10/31 12:11:31;;;;;;;8.10;7.50;;;30.50;98.20;;;;;;5014654;28;24525;-69
2021/10/31 12:14:06;;;;;;;7.07;6.50;;;30.20;97.10;;;;;;5020982;28;20239;-69
2021/10/31 12:16:55;;;;;;;8.00;7.20;;;29.90;97.30;;;;;;5020904;28;20603;-69
2021/10/31 12:19:46;;;;;;;7.93;7.30;;;29.60;96.40;;;;;;5016181;28;20613;-69
2021/10/31 12:22:22;;;;;;;8.10;7.40;;;27.60;97.00;;;;;;5013838;28;21505;-68
2021/10/31 12:24:51;;;;;;;8.20;6.97;;;27.00;99.70;;;;;;5018042;28;20927;-68
2021/10/31 12:27:22;;;;;;;8.07;7.47;;;26.50;99.90;;;;;;5014788;28;20655;-67
2021/10/31 12:30:12;;;;;;;8.33;7.53;;;27.10;99.90;;;;;;5014148;28;20714;-68
2021/10/31 12:32:42;;;;;;;8.40;7.70;;;27.00;99.90;;;;;;4978649;28;21210;-69
2021/10/31 12:35:31;;;;;;;9.30;8.43;;;27.10;99.90;;;;;;5008349;28;21259;-69
2021/10/31 12:38:31;;;;;;;8.80;8.13;;;26.80;99.90;;;;;;5015688;28;20607;-69
2021/10/31 12:41:06;;;;;;;8.63;7.93;;;26.50;99.90;;;;;;5011969;28;20643;-68
2021/10/31 12:43:46;;;;;;;8.13;7.53;;;26.40;99.90;;;;;;5022373;28;20650;-68
2021/10/31 12:46:22;;;;;;;8.53;7.90;;;26.00;99.90;;;;;;5017116;28;21231;-67
2021/10/31 12:48:53;;;;;;;9.03;8.13;;;25.90;99.90;;;;;;5016782;28;20615;-68